KPMV

Details ICAO KPMV
Name PLATTSMOUTH MUNI
Region United States
Timezone America/Chicago (UTC-6.0)
Plans Departing 0
Arriving 0
Stats Elevation 1,202 ft / 366 m (AMSL)
Location 40.948371° -95.917362°
Runways 1
Magnetic Variation 2.549° E
Sunrise 2017-12-17 13:44:13 UTC / 2017-12-17 07:44:13 Local
Sunset 2017-12-17 22:58:22 UTC / 2017-12-17 16:58:22 Local
Advertisement - Login to hide

Runways

ID Width Length Bearing (true) Bearing (mag) Surface Threshold Offset Overrun Length
16 98 ft / 30 m 5,509 ft / 1,679 m 167.60° 165.05° Concrete 0 ft / 0 m 0 ft / 0 m
34 98 ft / 30 m 5,509 ft / 1,679 m 347.60° 345.05° Concrete 0 ft / 0 m 0 ft / 0 m

Map

Weather


0- 5 10 15 20 25 30 35+ Temperature / ° C

Clouds and Precipitation
Forecast for 2017-12-17 12:00 UTC. Updated an hour ago

Ground ~20,000 ft ~40,000 ft Winds

METAR

KPMV 171015Z AUTO 36004KT 10SM CLR 01/M02 A2996 RMK AO2 T00051016

TAF

Not found

Frequencies

Unicom 122.70 MHz CTAF/UNICOM
Approach 120.10 MHz OMAHA APP/DEP
Warning: Do not use this data for real-world aviation or navigation. No guarantee of current accuracy is given.